Time;durP1;ratioP1;P1;durP2;ratioP2;P2;SDS_P1;SDS_P2;PMS_P1;PMS_P2;Temp;Humidity;BMP_temperature;BMP_pressure;BME280_temperature;BME280_humidity;BME280_pressure;Samples;Min_cycle;Max_cycle;Signal;HPM_P1;HPM_P2
2021/04/23 00:00:36;;;;;;;121.97;96.90;;;;;;;4.57;66.61;99311.31;5055693;28;20032;-63
2021/04/23 00:03:25;;;;;;;114.70;93.20;;;;;;;4.69;65.70;99312.31;5054929;28;20083;-63
2021/04/23 00:06:05;;;;;;;112.60;92.33;;;;;;;4.74;65.03;99308.16;5055573;28;20082;-63
2021/04/23 00:08:31;;;;;;;119.83;99.63;;;;;;;4.77;65.35;99311.59;5055491;28;20291;-63
2021/04/23 00:10:56;;;;;;;115.37;95.53;;;;;;;4.85;64.53;99315.09;5038591;28;20039;-63
2021/04/23 00:13:22;;;;;;;108.40;96.17;;;;;;;4.93;64.00;99316.06;5057410;28;20357;-63
2021/04/23 00:15:48;;;;;;;123.80;103.63;;;;;;;4.97;63.95;99314.41;5055596;28;20021;-63
2021/04/23 00:18:14;;;;;;;115.03;96.87;;;;;;;4.98;64.52;99308.50;5055834;28;20091;-63
2021/04/23 00:20:40;;;;;;;117.53;98.47;;;;;;;4.95;63.92;99313.56;5050458;28;20025;-64
2021/04/23 00:23:06;;;;;;;111.67;92.90;;;;;;;5.02;64.22;99317.88;5054625;28;20029;-63
2021/04/23 00:25:33;;;;;;;111.03;94.73;;;;;;;4.90;63.77;99303.34;5053224;28;20090;-63
2021/04/23 00:28:01;;;;;;;121.80;99.23;;;;;;;5.03;63.44;99305.22;5055058;28;20085;-63
2021/04/23 00:30:31;;;;;;;117.90;101.50;;;;;;;4.98;64.36;99304.28;5055284;28;20112;-63
2021/04/23 00:32:57;;;;;;;105.37;93.47;;;;;;;4.89;64.67;99309.25;5052674;28;20025;-63
2021/04/23 00:35:25;;;;;;;105.37;94.10;;;;;;;4.85;64.97;99312.56;5054039;28;20025;-63
2021/04/23 00:37:52;;;;;;;105.13;93.80;;;;;;;4.86;64.56;99305.81;5053341;28;20039;-66
2021/04/23 00:40:21;;;;;;;106.90;91.70;;;;;;;4.76;65.61;99303.94;5052653;28;20090;-65
2021/04/23 00:42:47;;;;;;;105.97;94.47;;;;;;;4.72;66.07;99305.59;5053168;28;20367;-65
2021/04/23 00:45:17;;;;;;;106.00;93.70;;;;;;;4.67;65.12;99308.91;5054411;28;20059;-65
2021/04/23 00:47:46;;;;;;;110.03;93.97;;;;;;;4.61;64.71;99304.59;5053877;28;20390;-66
2021/04/23 00:50:13;;;;;;;115.77;98.83;;;;;;;4.72;63.40;99304.72;5054368;28;20039;-65
2021/04/23 00:52:38;;;;;;;106.47;93.57;;;;;;;4.72;62.87;99300.50;5053901;28;20021;-65
2021/04/23 00:55:06;;;;;;;105.63;92.30;;;;;;;4.83;61.27;99301.53;5053439;28;20443;-65
2021/04/23 00:57:31;;;;;;;108.23;94.67;;;;;;;4.86;61.14;99305.81;5054324;28;20256;-65
2021/04/23 00:59:57;;;;;;;104.70;93.20;;;;;;;4.87;60.82;99300.75;5054449;28;20032;-66
2021/04/23 01:02:22;;;;;;;107.93;95.23;;;;;;;4.81;61.18;99299.78;5053276;28;20028;-65
2021/04/23 01:04:49;;;;;;;106.63;92.57;;;;;;;4.93;59.71;99297.44;5052782;28;20048;-65
2021/04/23 01:07:15;;;;;;;100.73;87.97;;;;;;;4.99;59.81;99302.59;5052539;28;20057;-65
2021/04/23 01:09:41;;;;;;;100.83;89.33;;;;;;;5.00;59.35;99307.72;5054860;28;20054;-65
2021/04/23 01:12:06;;;;;;;99.97;88.50;;;;;;;4.96;60.07;99308.50;5054376;28;20392;-65
2021/04/23 01:14:32;;;;;;;102.93;91.83;;;;;;;4.81;61.08;99307.41;5053793;28;20346;-65
2021/04/23 01:16:58;;;;;;;103.50;92.30;;;;;;;4.72;61.26;99304.72;5053123;28;20032;-65
2021/04/23 01:19:26;;;;;;;109.90;96.43;;;;;;;4.61;61.57;99309.66;5053011;28;20021;-65
2021/04/23 01:21:51;;;;;;;99.97;89.10;;;;;;;4.53;62.84;99316.31;5053267;28;20266;-65
2021/04/23 01:24:19;;;;;;;109.53;92.87;;;;;;;4.77;60.58;99305.66;5053357;28;20116;-65
2021/04/23 01:26:47;;;;;;;104.03;92.93;;;;;;;4.77;60.98;99311.59;5053322;28;20025;-65
2021/04/23 01:29:15;;;;;;;102.33;91.20;;;;;;;4.70;61.76;99307.28;5054016;28;20086;-65
2021/04/23 01:31:43;;;;;;;103.87;90.73;;;;;;;4.69;61.63;99318.25;5050891;28;20115;-65
2021/04/23 01:34:16;;;;;;;109.03;97.00;;;;;;;4.72;61.18;99315.75;5053996;28;20264;-65
2021/04/23 01:36:43;;;;;;;110.83;94.97;;;;;;;4.70;61.99;99321.66;5053933;28;20124;-65
2021/04/23 01:39:12;;;;;;;108.77;96.87;;;;;;;4.72;62.30;99317.44;5054092;28;20091;-65
2021/04/23 01:41:37;;;;;;;108.57;97.10;;;;;;;4.80;62.15;99320.94;5054229;28;20112;-65
2021/04/23 01:44:05;;;;;;;107.90;96.07;;;;;;;4.89;62.18;99323.63;5052984;28;20045;-65
2021/04/23 01:46:33;;;;;;;107.73;95.97;;;;;;;4.90;61.52;99330.41;5053321;28;20021;-65
2021/04/23 01:49:04;;;;;;;105.33;93.57;;;;;;;4.88;61.86;99325.31;5054387;28;20025;-65
2021/04/23 01:51:30;;;;;;;113.20;100.20;;;;;;;4.88;61.39;99330.38;5054435;28;20029;-65
2021/04/23 01:53:55;;;;;;;106.53;95.20;;;;;;;4.84;61.75;99327.78;5053334;28;20389;-65
2021/04/23 01:56:21;;;;;;;106.80;95.20;;;;;;;4.87;62.30;99326.16;5054857;28;20029;-65
2021/04/23 01:58:46;;;;;;;106.93;94.17;;;;;;;4.77;62.63;99323.44;5053203;28;20024;-65
2021/04/23 02:01:12;;;;;;;101.63;90.80;;;;;;;4.80;62.31;99326.88;5052454;28;20035;-65
2021/04/23 02:03:38;;;;;;;106.23;94.83;;;;;;;4.78;62.89;99323.47;5051962;28;20026;-65
2021/04/23 02:06:05;;;;;;;100.90;89.53;;;;;;;4.74;63.53;99329.34;5052438;28;20259;-65
2021/04/23 02:08:31;;;;;;;98.43;87.87;;;;;;;4.65;63.75;99331.75;5052081;28;20059;-65
2021/04/23 02:11:06;;;;;;;100.57;89.87;;;;;;;4.64;64.50;99330.03;5052038;28;20029;-65
2021/04/23 02:13:32;;;;;;;101.57;90.97;;;;;;;4.65;64.58;99328.34;5052198;28;20374;-65
2021/04/23 02:15:58;;;;;;;97.43;87.43;;;;;;;4.67;63.87;99334.31;5051613;28;20037;-65
2021/04/23 02:18:25;;;;;;;101.47;91.13;;;;;;;4.68;64.10;99326.69;5051836;28;20029;-65
2021/04/23 02:20:51;;;;;;;102.93;88.63;;;;;;;4.73;62.81;99336.94;5051425;28;20029;-65
2021/04/23 02:23:19;;;;;;;103.60;92.57;;;;;;;4.85;62.70;99324.41;5052342;28;20374;-64
2021/04/23 02:25:47;;;;;;;107.57;95.77;;;;;;;4.81;63.08;99333.69;5052309;28;20283;-61
2021/04/23 02:28:13;;;;;;;103.60;93.03;;;;;;;4.81;62.59;99323.50;5051992;28;20033;-61
2021/04/23 02:30:41;;;;;;;102.73;91.60;;;;;;;4.72;63.59;99336.06;5048753;28;20037;-62
2021/04/23 02:33:15;;;;;;;96.77;86.83;;;;;;;4.77;63.81;99328.53;5050732;28;20029;-62
2021/04/23 02:35:41;;;;;;;92.60;83.43;;;;;;;4.79;63.11;99334.50;5051377;28;20045;-62
2021/04/23 02:38:07;;;;;;;86.30;78.27;;;;;;;4.84;62.47;99328.63;5053232;28;20334;-62
2021/04/23 02:40:33;;;;;;;84.23;75.80;;;;;;;5.01;61.62;99332.28;5052304;28;20024;-62
2021/04/23 02:43:08;;;;;;;91.73;82.70;;;;;;;5.11;60.61;99332.41;5052079;28;20036;-62
2021/04/23 02:45:36;;;;;;;16.55;6.88;;;;;;;5.08;60.99;99340.84;5051013;28;20029;-62
2021/04/23 02:48:03;;;;;;;13.73;5.73;;;;;;;5.21;60.36;99335.13;5052239;28;20075;-62
2021/04/23 02:50:29;;;;;;;16.90;6.53;;;;;;;5.25;60.33;99331.78;5051884;28;20060;-62
2021/04/23 02:52:55;;;;;;;17.03;6.67;;;;;;;5.28;60.05;99339.44;5052517;28;20255;-62
2021/04/23 02:55:21;;;;;;;22.43;6.53;;;;;;;5.30;60.23;99335.25;5049060;28;20291;-62
2021/04/23 02:58:00;;;;;;;16.67;7.13;;;;;;;5.36;60.30;99331.91;5052567;28;20386;-62
2021/04/23 03:00:30;;;;;;;20.83;7.90;;;;;;;5.39;60.19;99322.63;5049622;28;20413;-62
2021/04/23 03:02:55;;;;;;;20.03;9.53;;;;;;;5.31;60.08;99325.91;5051524;28;20086;-62
2021/04/23 03:05:22;;;;;;;14.10;7.37;;;;;;;5.36;59.87;99334.44;5051022;28;20672;-62
2021/04/23 03:07:53;;;;;;;21.70;9.27;;;;;;;5.41;59.88;99332.81;5041217;28;20037;-62
2021/04/23 03:10:23;;;;;;;19.87;12.00;;;;;;;5.40;60.10;99333.66;5029528;28;20087;-62
2021/04/23 03:12:49;;;;;;;42.53;38.23;;;;;;;5.35;60.27;99332.72;5033840;28;20025;-63
2021/04/23 03:15:15;;;;;;;21.17;12.30;;;;;;;5.37;60.20;99334.47;5035301;28;20068;-63
2021/04/23 03:17:40;;;;;;;36.77;33.57;;;;;;;5.38;60.35;99341.28;5031311;28;20072;-62
2021/04/23 03:20:18;;;;;;;54.33;49.40;;;;;;;5.32;60.39;99338.63;5029519;28;20354;-64
2021/04/23 03:22:43;;;;;;;35.30;32.07;;;;;;;5.32;60.46;99333.56;5034906;28;20029;-63
2021/04/23 03:25:10;;;;;;;56.40;51.27;;;;;;;5.40;60.03;99346.34;5033635;28;20379;-62
2021/04/23 03:27:37;;;;;;;101.70;91.87;;;;;;;5.33;60.76;99345.44;5040856;28;20029;-61
2021/04/23 03:30:05;;;;;;;135.23;117.57;;;;;;;5.35;61.68;99342.91;5034203;28;20033;-63
2021/04/23 03:32:31;;;;;;;160.47;129.17;;;;;;;5.25;62.48;99347.03;5037823;28;20084;-63
2021/04/23 03:34:56;;;;;;;163.00;124.13;;;;;;;5.20;63.28;99343.56;5037553;28;20100;-64
2021/04/23 03:37:22;;;;;;;170.63;129.17;;;;;;;5.14;63.19;99346.00;5031729;28;20060;-64
2021/04/23 03:39:47;;;;;;;161.87;126.57;;;;;;;5.05;63.47;99349.28;5034324;28;20383;-64
2021/04/23 03:42:13;;;;;;;109.37;98.97;;;;;;;5.00;63.33;99344.97;5037163;28;20483;-63
2021/04/23 03:44:38;;;;;;;101.77;92.37;;;;;;;4.95;63.99;99354.22;5036433;28;20042;-64
2021/04/23 03:47:04;;;;;;;159.00;123.83;;;;;;;4.92;63.10;99349.09;5039115;28;20033;-64
2021/04/23 03:49:29;;;;;;;165.40;133.77;;;;;;;4.97;62.05;99347.44;5038700;28;20083;-63
2021/04/23 03:51:55;;;;;;;152.23;119.13;;;;;;;5.01;61.64;99349.19;5039639;28;20037;-63
2021/04/23 03:54:20;;;;;;;162.40;123.63;;;;;;;4.98;61.11;99351.72;5037589;28;20421;-63
2021/04/23 03:56:45;;;;;;;158.70;118.43;;;;;;;4.94;61.50;99350.81;5035663;28;20057;-63
2021/04/23 03:59:11;;;;;;;157.27;115.10;;;;;;;4.86;61.30;99356.59;5040972;28;20033;-63
2021/04/23 04:01:36;;;;;;;156.13;118.27;;;;;;;4.92;60.88;99349.09;5037559;28;20029;-63
2021/04/23 04:04:03;;;;;;;144.87;113.97;;;;;;;4.98;60.55;99357.66;5036402;28;20064;-63
2021/04/23 04:06:28;;;;;;;152.03;113.30;;;;;;;5.01;60.40;99357.69;5038311;28;20044;-63
2021/04/23 04:08:53;;;;;;;148.87;112.60;;;;;;;4.98;60.50;99360.19;5058694;28;20029;-63
2021/04/23 04:11:20;;;;;;;149.00;117.60;;;;;;;5.03;60.05;99363.66;5058438;28;20032;-63
2021/04/23 04:13:45;;;;;;;141.63;115.50;;;;;;;4.96;60.65;99361.00;5058645;28;20036;-63
2021/04/23 04:16:11;;;;;;;139.23;111.60;;;;;;;4.95;60.69;99359.28;5058959;28;20170;-63
2021/04/23 04:18:37;;;;;;;141.40;110.13;;;;;;;4.96;61.36;99376.25;5057280;28;20547;-63
2021/04/23 04:21:03;;;;;;;142.17;112.23;;;;;;;4.94;61.36;99371.13;5058340;28;20032;-63
2021/04/23 04:23:28;;;;;;;131.73;105.87;;;;;;;4.92;61.76;99374.50;5058825;28;20370;-63
2021/04/23 04:25:58;;;;;;;124.70;100.57;;;;;;;4.87;62.68;99363.41;5057625;28;20558;-63
2021/04/23 04:28:25;;;;;;;134.27;110.77;;;;;;;4.67;63.99;99370.69;5057662;28;20048;-63
2021/04/23 04:30:51;;;;;;;131.83;105.67;;;;;;;4.65;64.49;99371.50;5057386;28;20367;-63
2021/04/23 04:33:16;;;;;;;124.03;104.17;;;;;;;4.60;64.87;99377.38;5058149;28;20040;-63
2021/04/23 04:35:43;;;;;;;120.33;97.73;;;;;;;4.61;65.19;99373.16;5057941;28;20029;-63
2021/04/23 04:38:10;;;;;;;118.03;101.07;;;;;;;4.65;64.81;99377.44;5052037;28;20064;-63
2021/04/23 04:40:38;;;;;;;123.90;103.23;;;;;;;4.78;64.70;99384.44;5054379;28;20290;-63
2021/04/23 04:43:09;;;;;;;126.17;101.43;;;;;;;4.86;64.27;99374.41;5053334;28;20029;-63
2021/04/23 04:45:36;;;;;;;125.03;104.27;;;;;;;4.80;64.75;99374.28;5053613;28;20370;-63
2021/04/23 04:48:03;;;;;;;121.83;99.40;;;;;;;4.81;64.76;99381.94;5054585;28;20041;-63
2021/04/23 04:50:32;;;;;;;118.17;98.50;;;;;;;4.90;64.57;99379.53;5054532;28;20048;-63
2021/04/23 04:53:00;;;;;;;126.83;104.37;;;;;;;4.88;64.85;99381.19;5054046;28;20032;-63
2021/04/23 04:55:28;;;;;;;137.43;107.23;;;;;;;4.94;64.48;99391.47;5053859;28;20628;-63
2021/04/23 04:57:54;;;;;;;143.97;111.87;;;;;;;5.02;64.31;99384.81;5051874;28;20025;-63
2021/04/23 05:00:21;;;;;;;144.97;112.17;;;;;;;5.17;63.71;99388.41;5054097;28;20043;-63
2021/04/23 05:02:46;;;;;;;20.97;7.93;;;;;;;5.22;63.09;99395.25;5053764;28;20039;-63
2021/04/23 05:05:12;;;;;;;20.20;6.37;;;;;;;5.38;62.98;99399.75;5053306;28;20033;-63
2021/04/23 05:07:38;;;;;;;16.23;6.43;;;;;;;5.43;62.78;99405.72;5053545;28;20049;-63
2021/04/23 05:10:04;;;;;;;17.43;7.07;;;;;;;5.63;61.86;99410.25;5054772;28;20263;-63
2021/04/23 05:12:29;;;;;;;24.10;6.50;;;;;;;5.74;61.31;99407.00;5054783;28;20079;-65
2021/04/23 05:14:55;;;;;;;19.37;6.53;;;;;;;5.94;59.80;99413.22;5055322;28;20032;-63
2021/04/23 05:17:20;;;;;;;21.40;6.07;;;;;;;6.11;58.90;99410.03;5050345;28;20104;-63
2021/04/23 05:19:46;;;;;;;17.93;6.27;;;;;;;6.19;58.64;99418.59;5055627;28;20040;-63
2021/04/23 05:22:11;;;;;;;16.87;12.60;;;;;;;6.24;58.38;99411.84;5053839;28;20082;-63
2021/04/23 05:24:37;;;;;;;69.57;63.73;;;;;;;6.32;58.75;99426.38;5054352;28;20021;-63
2021/04/23 05:27:02;;;;;;;23.20;20.67;;;;;;;6.49;58.89;99433.34;5054686;28;20029;-63
2021/04/23 05:29:28;;;;;;;32.37;24.60;;;;;;;6.56;59.19;99435.97;5051968;28;20025;-63
2021/04/23 05:31:53;;;;;;;32.00;22.40;;;;;;;6.51;59.02;99440.16;5053901;28;20032;-64
2021/04/23 05:34:19;;;;;;;16.47;5.97;;;;;;;6.60;58.98;99434.31;5053370;28;20032;-65
2021/04/23 05:36:46;;;;;;;25.50;8.23;;;;;;;6.65;59.64;99436.06;5034739;28;20036;-64
2021/04/23 05:39:12;;;;;;;14.80;6.00;;;;;;;6.73;59.44;99438.69;5052996;28;20335;-64
2021/04/23 05:41:39;;;;;;;19.97;6.73;;;;;;;6.81;59.19;99437.06;5052219;28;20056;-64
2021/04/23 05:44:08;;;;;;;20.30;6.27;;;;;;;6.85;59.12;99443.88;5052019;28;20059;-64
2021/04/23 05:46:33;;;;;;;20.33;7.13;;;;;;;7.04;57.77;99450.84;5052907;28;20024;-65
2021/04/23 05:48:58;;;;;;;16.90;6.23;;;;;;;7.10;57.99;99445.78;5050781;28;20033;-63
2021/04/23 05:51:24;;;;;;;17.83;7.00;;;;;;;7.16;57.45;99445.84;5050477;28;20025;-64
2021/04/23 05:53:49;;;;;;;18.60;6.43;;;;;;;7.28;57.93;99448.50;5052884;28;20060;-64
2021/04/23 05:56:14;;;;;;;22.93;7.13;;;;;;;7.41;56.57;99451.13;5053354;28;20024;-64
2021/04/23 05:58:40;;;;;;;19.60;5.73;;;;;;;7.53;55.48;99451.19;5054637;28;20433;-64
2021/04/23 06:01:06;;;;;;;27.93;8.67;;;;;;;7.66;55.02;99452.97;5051436;28;20032;-64
2021/04/23 06:03:31;;;;;;;18.97;6.03;;;;;;;7.70;54.62;99457.25;5053632;28;20044;-64
2021/04/23 06:05:57;;;;;;;22.70;7.53;;;;;;;7.69;53.69;99451.28;5051557;28;20032;-64
2021/04/23 06:08:23;;;;;;;18.57;6.10;;;;;;;7.72;52.86;99451.31;5047465;28;20393;-64
2021/04/23 06:10:49;;;;;;;19.93;5.97;;;;;;;7.91;52.34;99459.91;5052752;28;20086;-65
2021/04/23 06:13:15;;;;;;;14.23;5.13;;;;;;;8.02;52.53;99465.09;5050726;28;20036;-62
2021/04/23 06:15:41;;;;;;;19.13;7.20;;;;;;;8.19;52.67;99453.22;5053350;28;20112;-63
2021/04/23 06:18:07;;;;;;;17.90;5.97;;;;;;;8.11;52.10;99447.22;5052523;28;20039;-64
2021/04/23 06:20:34;;;;;;;25.57;7.97;;;;;;;8.37;52.87;99455.88;5053113;28;20040;-62
2021/04/23 06:23:01;;;;;;;21.27;5.80;;;;;;;8.37;51.57;99457.56;5043085;28;20119;-63
2021/04/23 06:25:28;;;;;;;24.57;7.17;;;;;;;8.34;51.60;99465.25;5052402;28;20047;-63
2021/04/23 06:27:54;;;;;;;18.13;6.07;;;;;;;8.41;51.35;99456.72;5048795;28;20079;-65
2021/04/23 06:30:24;;;;;;;16.83;5.90;;;;;;;8.48;51.71;99461.03;5051298;28;20378;-62
2021/04/23 06:32:49;;;;;;;15.10;6.37;;;;;;;8.46;50.96;99471.25;5051687;28;20045;-63
2021/04/23 06:35:18;;;;;;;27.43;13.80;;;;;;;8.66;50.16;99459.34;5052473;28;20062;-62
2021/04/23 06:37:43;;;;;;;129.33;119.17;;;;;;;8.59;49.80;99467.88;5052288;28;20375;-63
2021/04/23 06:40:10;;;;;;;152.67;139.47;;;;;;;8.72;48.80;99466.19;5051229;28;20452;-63
2021/04/23 06:42:36;;;;;;;136.50;125.47;;;;;;;8.70;49.61;99466.19;5049468;28;20039;-63
2021/04/23 06:45:02;;;;;;;150.53;137.53;;;;;;;8.88;48.92;99474.72;5050596;28;20021;-63
2021/04/23 06:47:28;;;;;;;138.73;127.90;;;;;;;8.82;48.66;99467.06;5051304;28;20350;-62
2021/04/23 06:49:53;;;;;;;138.90;127.43;;;;;;;8.91;47.89;99467.91;5051827;28;20112;-63
2021/04/23 06:52:19;;;;;;;129.23;118.87;;;;;;;8.86;48.35;99468.78;5051097;28;20032;-63
2021/04/23 06:54:44;;;;;;;130.70;120.27;;;;;;;8.84;46.79;99468.75;5053688;28;20032;-63
2021/04/23 06:57:10;;;;;;;125.90;114.83;;;;;;;8.93;47.01;99466.22;5050105;28;20104;-63
2021/04/23 06:59:35;;;;;;;118.40;109.13;;;;;;;9.10;46.39;99476.47;5053179;28;20108;-63
2021/04/23 07:02:01;;;;;;;132.10;121.47;;;;;;;9.04;46.40;99471.31;5049206;28;20371;-63
2021/04/23 07:04:26;;;;;;;121.67;112.57;;;;;;;9.08;46.12;99473.06;5051758;28;20125;-63
2021/04/23 07:06:51;;;;;;;125.57;114.80;;;;;;;9.08;45.72;99475.63;5049292;28;20081;-63
2021/04/23 07:09:17;;;;;;;122.43;112.93;;;;;;;9.33;45.92;99479.88;5029472;28;20338;-63
2021/04/23 07:11:44;;;;;;;123.97;114.00;;;;;;;9.01;45.23;99487.53;5032882;28;20397;-63
2021/04/23 07:14:10;;;;;;;115.50;106.97;;;;;;;9.02;44.96;99478.16;5036066;28;20385;-61
2021/04/23 07:16:36;;;;;;;124.77;114.67;;;;;;;9.07;45.17;99479.03;5032628;28;20033;-62
2021/04/23 07:19:01;;;;;;;121.20;112.20;;;;;;;9.28;45.48;99480.72;5031887;28;20045;-62
2021/04/23 07:21:26;;;;;;;126.03;116.10;;;;;;;9.32;43.83;99472.19;5033972;28;20036;-63
2021/04/23 07:23:52;;;;;;;127.90;117.27;;;;;;;9.21;44.66;99476.47;5031700;28;20044;-63
2021/04/23 07:26:18;;;;;;;143.87;132.77;;;;;;;9.35;43.57;99482.41;5033226;28;20038;-63
2021/04/23 07:28:43;;;;;;;142.33;131.30;;;;;;;9.30;43.97;99491.81;5038840;28;20049;-63
2021/04/23 07:31:09;;;;;;;150.83;139.10;;;;;;;9.54;44.44;99486.69;5032731;28;20303;-63
2021/04/23 07:33:34;;;;;;;150.87;139.17;;;;;;;9.38;42.13;99493.50;5017587;28;20037;-63
2021/04/23 07:35:59;;;;;;;144.70;133.73;;;;;;;9.67;43.63;99484.97;5032834;28;20211;-63
2021/04/23 07:38:25;;;;;;;148.13;136.50;;;;;;;9.79;43.14;99488.34;5033777;28;20072;-63
2021/04/23 07:40:50;;;;;;;132.50;123.60;;;;;;;10.11;42.00;99483.13;5030588;28;20033;-63
2021/04/23 07:43:16;;;;;;;127.40;118.77;;;;;;;10.44;40.32;99483.00;5028274;28;20037;-64
2021/04/23 07:45:41;;;;;;;129.47;120.40;;;;;;;10.38;41.24;99487.31;5032890;28;20048;-63
2021/04/23 07:48:07;;;;;;;128.73;120.13;;;;;;;9.95;42.18;99487.44;5036805;28;20291;-63
2021/04/23 07:50:32;;;;;;;132.73;123.33;;;;;;;10.18;41.50;99487.41;5030841;28;20048;-62
2021/04/23 07:52:58;;;;;;;129.50;121.03;;;;;;;10.15;42.01;99487.41;5033674;28;20037;-63
2021/04/23 07:55:24;;;;;;;129.43;120.17;;;;;;;10.20;42.35;99488.25;5033598;28;20120;-62
2021/04/23 07:57:52;;;;;;;122.50;114.27;;;;;;;10.38;42.05;99487.31;5032501;28;20330;-64
2021/04/23 08:00:19;;;;;;;133.53;124.73;;;;;;;10.36;41.57;99484.75;5030731;28;20037;-64
2021/04/23 08:02:45;;;;;;;126.17;117.47;;;;;;;10.20;40.73;99478.00;5028362;28;20336;-63
2021/04/23 08:05:14;;;;;;;142.77;133.37;;;;;;;10.23;41.17;99477.13;5032936;28;20056;-63
2021/04/23 08:07:39;;;;;;;134.93;126.00;;;;;;;10.38;42.12;99477.06;5043316;28;20057;-62
2021/04/23 08:10:06;;;;;;;130.60;121.77;;;;;;;10.38;40.60;99484.75;5036661;28;20075;-62
2021/04/23 08:12:32;;;;;;;132.67;124.07;;;;;;;10.36;40.95;99479.63;5052363;28;20033;-62
2021/04/23 08:14:57;;;;;;;137.60;128.77;;;;;;;10.62;40.76;99479.50;5036714;28;20094;-62
2021/04/23 08:17:24;;;;;;;122.73;114.50;;;;;;;10.66;39.83;99488.03;5055859;28;20032;-62
2021/04/23 08:19:50;;;;;;;138.27;128.43;;;;;;;10.63;41.07;99475.22;5054487;28;20301;-62
2021/04/23 08:22:16;;;;;;;124.73;116.47;;;;;;;10.75;40.84;99468.31;5055056;28;20319;-62
2021/04/23 08:24:41;;;;;;;122.20;114.43;;;;;;;10.52;40.59;99481.25;5053675;28;20370;-62
2021/04/23 08:27:06;;;;;;;123.50;115.77;;;;;;;10.45;39.97;99487.28;5054335;28;20033;-62
2021/04/23 08:29:32;;;;;;;115.27;107.40;;;;;;;10.19;41.88;99486.53;5053848;28;20343;-62
2021/04/23 08:31:57;;;;;;;121.73;112.33;;;;;;;10.37;42.63;99483.06;5052269;28;20082;-62
2021/04/23 08:34:22;;;;;;;119.53;112.03;;;;;;;10.55;41.59;99488.09;5053601;28;20037;-62
2021/04/23 08:36:48;;;;;;;132.80;123.80;;;;;;;10.87;39.99;99472.50;5053987;28;20140;-62
2021/04/23 08:39:14;;;;;;;117.13;109.80;;;;;;;11.17;40.76;99476.56;5053388;28;20124;-62
2021/04/23 08:41:40;;;;;;;135.80;126.67;;;;;;;11.17;38.35;99480.00;5054631;28;20044;-62
2021/04/23 08:44:07;;;;;;;117.80;110.73;;;;;;;11.00;40.07;99485.25;5053659;28;20048;-62
2021/04/23 08:46:33;;;;;;;127.00;119.00;;;;;;;10.91;38.84;99480.19;5054922;28;20063;-62
2021/04/23 08:49:00;;;;;;;130.13;120.60;;;;;;;10.93;39.10;99488.72;5051507;28;20071;-62
2021/04/23 08:51:27;;;;;;;115.63;108.50;;;;;;;10.90;38.90;99475.06;5053232;28;20335;-62
2021/04/23 08:53:53;;;;;;;128.13;119.73;;;;;;;11.19;39.18;99464.59;5053147;28;20078;-62
2021/04/23 08:56:19;;;;;;;123.27;114.67;;;;;;;11.50;39.18;99462.63;5049083;28;20033;-63
2021/04/23 08:58:46;;;;;;;116.80;109.70;;;;;;;11.53;39.32;99458.28;5054471;28;20036;-62
2021/04/23 09:01:12;;;;;;;122.37;114.83;;;;;;;11.44;37.96;99464.38;5053819;28;20029;-62
2021/04/23 09:03:37;;;;;;;122.17;114.10;;;;;;;11.59;37.47;99459.94;5054241;28;20386;-62
2021/04/23 09:06:15;;;;;;;115.73;108.73;;;;;;;11.79;38.40;99458.06;5052432;28;20131;-62
2021/04/23 09:08:53;;;;;;;116.57;108.97;;;;;;;11.67;37.25;99468.44;5032171;28;20067;-62
2021/04/23 09:11:20;;;;;;;115.90;108.43;;;;;;;11.55;37.80;99473.66;5033241;28;20075;-62
2021/04/23 09:13:57;;;;;;;121.23;113.87;;;;;;;11.64;38.74;99461.59;5029753;28;20267;-62
2021/04/23 09:16:26;;;;;;;115.87;108.33;;;;;;;11.80;38.82;99475.16;5034265;28;20057;-63
2021/04/23 09:18:52;;;;;;;121.70;114.23;;;;;;;11.86;38.00;99465.69;5014712;28;20061;-64
2021/04/23 09:21:18;;;;;;;123.77;116.10;;;;;;;11.89;38.35;99462.22;5033815;28;20037;-63
2021/04/23 09:23:51;;;;;;;139.17;130.83;;;;;;;12.26;37.95;99454.94;5030860;28;20326;-63
2021/04/23 09:26:38;;;;;;;125.68;118.50;;;;;;;12.18;37.95;99456.75;5034070;28;20099;-63
2021/04/23 09:29:05;;;;;;;128.60;121.35;;;;;;;12.14;39.30;99450.78;5038013;28;20259;-63
2021/04/23 09:31:34;;;;;;;107.70;101.50;;;;;;;12.11;37.78;99453.41;5039492;28;20098;-63
2021/04/23 09:34:05;;;;;;;125.60;118.97;;;;;;;12.13;38.73;99458.53;5036477;28;20041;-64
2021/04/23 09:36:44;;;;;;;130.80;123.28;;;;;;;11.75;38.38;99469.25;5032558;28;20037;-63
2021/04/23 09:39:10;;;;;;;128.40;120.13;;;;;;;11.74;39.03;99457.25;5037472;28;20287;-64
2021/04/23 09:41:36;;;;;;;142.43;133.85;;;;;;;11.90;38.80;99456.22;5035651;28;20029;-64
2021/04/23 09:44:01;;;;;;;137.73;130.02;;;;;;;12.21;38.45;99451.59;5036527;28;20044;-63
2021/04/23 09:46:38;;;;;;;144.55;136.23;;;;;;;12.23;38.51;99455.81;5032988;28;20350;-64
2021/04/23 09:49:19;;;;;;;138.40;130.68;;;;;;;12.48;38.22;99450.34;5035558;28;20033;-63
2021/04/23 09:51:46;;;;;;;142.57;134.23;;;;;;;12.37;38.63;99447.94;5027634;28;20093;-64
2021/04/23 09:54:17;;;;;;;136.05;127.22;;;;;;;12.54;36.94;99445.13;5030648;28;20327;-65
2021/04/23 09:56:43;;;;;;;121.90;114.47;;;;;;;12.42;36.81;99446.16;5033179;28;20086;-63
2021/04/23 09:59:15;;;;;;;121.60;113.97;;;;;;;12.51;39.16;99435.75;5033293;28;20034;-63
2021/04/23 10:02:10;;;;;;;144.75;136.50;;;;;;;12.67;38.27;99437.22;5032763;28;20120;-61
2021/04/23 10:04:36;;;;;;;124.95;116.65;;;;;;;12.70;37.71;99433.75;5027017;28;20337;-63
2021/04/23 10:07:09;;;;;;;139.38;130.90;;;;;;;12.71;37.32;99432.88;5034704;28;20056;-63
2021/04/23 10:09:49;;;;;;;138.27;130.63;;;;;;;12.76;37.59;99431.97;5054106;28;20206;-63
2021/04/23 10:12:51;;;;;;;129.35;121.82;;;;;;;12.54;37.02;99424.56;5052720;28;20029;-63
2021/04/23 10:15:23;;;;;;;142.85;134.90;;;;;;;12.72;36.84;99427.72;5054177;28;20374;-63
2021/04/23 10:17:51;;;;;;;136.82;129.00;;;;;;;12.57;36.71;99429.66;5051778;28;20025;-63
2021/04/23 10:20:22;;;;;;;147.48;138.52;;;;;;;12.49;36.75;99422.06;5052545;28;20033;-63
2021/04/23 10:22:48;;;;;;;150.70;142.15;;;;;;;12.35;35.96;99429.09;5053165;28;20036;-63
2021/04/23 10:25:14;;;;;;;146.40;137.48;;;;;;;12.62;36.49;99423.56;5052784;28;20093;-63
2021/04/23 10:27:42;;;;;;;146.88;138.43;;;;;;;12.44;36.83;99413.53;5053735;28;20075;-62
2021/04/23 10:30:13;;;;;;;144.43;136.45;;;;;;;12.45;37.25;99412.69;5052817;28;20057;-62
2021/04/23 10:32:39;;;;;;;172.63;161.00;;;;;;;12.50;36.53;99402.31;5025996;28;20410;-62
2021/04/23 10:35:06;;;;;;;148.52;139.55;;;;;;;12.72;36.06;99403.72;5035847;28;20159;-63
2021/04/23 10:37:32;;;;;;;160.65;150.48;;;;;;;12.60;37.02;99404.72;5051212;28;20043;-63
2021/04/23 10:39:58;;;;;;;164.75;154.63;;;;;;;12.49;37.31;99409.19;5052480;28;20037;-63
2021/04/23 10:43:03;;;;;;;160.77;151.07;;;;;;;12.68;36.78;99404.63;5049381;28;20029;-63
2021/04/23 10:45:41;;;;;;;149.68;140.50;;;;;;;12.76;35.77;99405.38;5047795;28;20052;-62
2021/04/23 10:48:13;;;;;;;156.70;146.98;;;;;;;12.98;35.92;99400.75;5027856;28;20428;-63
2021/04/23 10:50:44;;;;;;;148.70;140.18;;;;;;;12.88;36.41;99412.91;5051797;28;20251;-62
2021/04/23 10:53:11;;;;;;;155.20;146.70;;;;;;;12.77;35.75;99395.03;5051144;28;20415;-62
2021/04/23 10:55:36;;;;;;;149.38;140.20;;;;;;;13.01;35.45;99398.97;5049593;28;20082;-62
2021/04/23 10:58:02;;;;;;;171.55;160.90;;;;;;;12.96;35.42;99400.75;5049937;28;20036;-63
2021/04/23 11:00:38;;;;;;;163.20;153.77;;;;;;;13.10;35.52;99387.66;5051668;28;20106;-61
2021/04/23 11:03:33;;;;;;;175.25;163.90;;;;;;;13.07;34.43;99395.44;5052154;28;20025;-63
2021/04/23 11:05:59;;;;;;;171.70;161.80;;;;;;;13.32;35.26;99398.47;5036934;28;20250;-62
2021/04/23 11:08:26;;;;;;;167.63;158.23;;;;;;;13.18;35.10;99384.09;5053414;28;20155;-62
2021/04/23 11:11:11;;;;;;;165.82;156.10;;;;;;;13.39;35.83;99393.19;5053082;28;20036;-62
2021/04/23 11:13:37;;;;;;;158.95;150.05;;;;;;;13.28;36.88;99389.97;5052565;28;20410;-62
2021/04/23 11:16:21;;;;;;;196.23;184.77;;;;;;;13.50;36.06;99387.81;5037446;28;20335;-62